sensor_id;sensor_type;location;lat;lon;timestamp;P1;durP1;ratioP1;P2;durP2;ratioP2
17151;SDS011;8691;50.828;4.700;2023-07-02T00:01:48;19.50;;;9.93;;
17151;SDS011;8691;50.828;4.700;2023-07-02T00:04:24;18.80;;;9.93;;
17151;SDS011;8691;50.828;4.700;2023-07-02T00:07:01;16.93;;;10.43;;
17151;SDS011;8691;50.828;4.700;2023-07-02T00:09:38;17.40;;;10.10;;
17151;SDS011;8691;50.828;4.700;2023-07-02T00:12:15;18.67;;;10.43;;
17151;SDS011;8691;50.828;4.700;2023-07-02T00:14:51;21.60;;;10.73;;
17151;SDS011;8691;50.828;4.700;2023-07-02T00:17:29;17.47;;;10.33;;
17151;SDS011;8691;50.828;4.700;2023-07-02T00:20:06;22.50;;;10.83;;
17151;SDS011;8691;50.828;4.700;2023-07-02T00:22:42;18.67;;;10.63;;
17151;SDS011;8691;50.828;4.700;2023-07-02T00:25:20;25.93;;;13.47;;
17151;SDS011;8691;50.828;4.700;2023-07-02T00:27:57;22.08;;;13.45;;
17151;SDS011;8691;50.828;4.700;2023-07-02T00:30:34;25.17;;;12.10;;
17151;SDS011;8691;50.828;4.700;2023-07-02T00:33:11;22.77;;;13.97;;
17151;SDS011;8691;50.828;4.700;2023-07-02T00:35:47;18.03;;;11.67;;
17151;SDS011;8691;50.828;4.700;2023-07-02T00:38:24;25.47;;;11.33;;
17151;SDS011;8691;50.828;4.700;2023-07-02T00:41:01;23.10;;;14.07;;
17151;SDS011;8691;50.828;4.700;2023-07-02T00:43:38;20.60;;;11.50;;
17151;SDS011;8691;50.828;4.700;2023-07-02T00:46:21;19.87;;;11.77;;
17151;SDS011;8691;50.828;4.700;2023-07-02T00:48:57;18.77;;;10.93;;
17151;SDS011;8691;50.828;4.700;2023-07-02T00:51:34;20.77;;;10.77;;
17151;SDS011;8691;50.828;4.700;2023-07-02T00:54:11;20.97;;;11.17;;
17151;SDS011;8691;50.828;4.700;2023-07-02T00:56:48;22.37;;;11.30;;
17151;SDS011;8691;50.828;4.700;2023-07-02T00:59:25;23.40;;;11.37;;
17151;SDS011;8691;50.828;4.700;2023-07-02T01:02:02;23.20;;;11.20;;
17151;SDS011;8691;50.828;4.700;2023-07-02T01:04:38;23.90;;;12.00;;
17151;SDS011;8691;50.828;4.700;2023-07-02T01:07:15;18.83;;;11.50;;
17151;SDS011;8691;50.828;4.700;2023-07-02T01:09:52;23.73;;;11.63;;
17151;SDS011;8691;50.828;4.700;2023-07-02T01:12:28;23.07;;;12.43;;
17151;SDS011;8691;50.828;4.700;2023-07-02T01:15:05;27.67;;;12.60;;
17151;SDS011;8691;50.828;4.700;2023-07-02T01:17:42;23.63;;;12.33;;
17151;SDS011;8691;50.828;4.700;2023-07-02T01:20:19;22.30;;;12.67;;
17151;SDS011;8691;50.828;4.700;2023-07-02T01:22:55;24.23;;;12.80;;
17151;SDS011;8691;50.828;4.700;2023-07-02T01:25:32;19.60;;;11.73;;
17151;SDS011;8691;50.828;4.700;2023-07-02T01:28:09;24.48;;;15.57;;
17151;SDS011;8691;50.828;4.700;2023-07-02T01:30:46;27.27;;;13.53;;
17151;SDS011;8691;50.828;4.700;2023-07-02T01:33:23;27.27;;;16.27;;
17151;SDS011;8691;50.828;4.700;2023-07-02T01:36:00;24.90;;;13.30;;
17151;SDS011;8691;50.828;4.700;2023-07-02T01:38:37;23.23;;;13.73;;
17151;SDS011;8691;50.828;4.700;2023-07-02T01:41:13;24.63;;;13.23;;
17151;SDS011;8691;50.828;4.700;2023-07-02T01:43:50;28.93;;;14.23;;
17151;SDS011;8691;50.828;4.700;2023-07-02T01:46:27;27.90;;;14.00;;
17151;SDS011;8691;50.828;4.700;2023-07-02T01:49:03;24.63;;;13.57;;
17151;SDS011;8691;50.828;4.700;2023-07-02T01:51:40;31.00;;;17.10;;
17151;SDS011;8691;50.828;4.700;2023-07-02T01:54:17;25.10;;;13.43;;
17151;SDS011;8691;50.828;4.700;2023-07-02T01:56:54;27.57;;;14.00;;
17151;SDS011;8691;50.828;4.700;2023-07-02T01:59:30;23.80;;;13.67;;
17151;SDS011;8691;50.828;4.700;2023-07-02T02:02:07;31.70;;;14.40;;
17151;SDS011;8691;50.828;4.700;2023-07-02T02:04:44;27.27;;;13.90;;
17151;SDS011;8691;50.828;4.700;2023-07-02T02:07:21;28.27;;;14.47;;
17151;SDS011;8691;50.828;4.700;2023-07-02T02:09:58;27.30;;;13.97;;
17151;SDS011;8691;50.828;4.700;2023-07-02T02:12:34;29.67;;;15.13;;
17151;SDS011;8691;50.828;4.700;2023-07-02T02:15:12;25.90;;;14.03;;
17151;SDS011;8691;50.828;4.700;2023-07-02T02:17:48;28.70;;;14.77;;
17151;SDS011;8691;50.828;4.700;2023-07-02T02:20:25;24.53;;;14.33;;
17151;SDS011;8691;50.828;4.700;2023-07-02T02:23:02;27.07;;;13.57;;
17151;SDS011;8691;50.828;4.700;2023-07-02T02:25:39;27.47;;;14.20;;
17151;SDS011;8691;50.828;4.700;2023-07-02T02:28:16;27.10;;;13.63;;
17151;SDS011;8691;50.828;4.700;2023-07-02T02:30:52;25.30;;;14.53;;
17151;SDS011;8691;50.828;4.700;2023-07-02T02:33:29;32.13;;;15.10;;
17151;SDS011;8691;50.828;4.700;2023-07-02T02:36:06;25.87;;;14.67;;
17151;SDS011;8691;50.828;4.700;2023-07-02T02:38:42;30.80;;;15.63;;
17151;SDS011;8691;50.828;4.700;2023-07-02T02:41:19;31.50;;;14.77;;
17151;SDS011;8691;50.828;4.700;2023-07-02T02:43:56;28.70;;;15.23;;
17151;SDS011;8691;50.828;4.700;2023-07-02T02:46:32;34.00;;;15.47;;
17151;SDS011;8691;50.828;4.700;2023-07-02T02:49:10;30.20;;;15.27;;
17151;SDS011;8691;50.828;4.700;2023-07-02T02:51:46;27.20;;;14.93;;
17151;SDS011;8691;50.828;4.700;2023-07-02T02:54:23;27.90;;;14.90;;
17151;SDS011;8691;50.828;4.700;2023-07-02T02:57:00;29.17;;;14.93;;
17151;SDS011;8691;50.828;4.700;2023-07-02T02:59:36;25.40;;;14.70;;
17151;SDS011;8691;50.828;4.700;2023-07-02T03:02:13;32.47;;;15.33;;
17151;SDS011;8691;50.828;4.700;2023-07-02T03:04:50;40.05;;;20.08;;
17151;SDS011;8691;50.828;4.700;2023-07-02T03:07:27;39.33;;;19.70;;
17151;SDS011;8691;50.828;4.700;2023-07-02T03:10:04;35.60;;;19.40;;
17151;SDS011;8691;50.828;4.700;2023-07-02T03:12:41;31.37;;;17.30;;
17151;SDS011;8691;50.828;4.700;2023-07-02T03:15:17;33.27;;;17.00;;
17151;SDS011;8691;50.828;4.700;2023-07-02T03:17:55;33.67;;;16.00;;
17151;SDS011;8691;50.828;4.700;2023-07-02T03:20:32;34.03;;;15.83;;
17151;SDS011;8691;50.828;4.700;2023-07-02T03:23:08;36.50;;;15.83;;
17151;SDS011;8691;50.828;4.700;2023-07-02T03:25:45;39.97;;;20.55;;
17151;SDS011;8691;50.828;4.700;2023-07-02T03:28:22;39.30;;;18.17;;
17151;SDS011;8691;50.828;4.700;2023-07-02T03:30:59;35.83;;;17.47;;
17151;SDS011;8691;50.828;4.700;2023-07-02T03:33:35;34.97;;;16.93;;
17151;SDS011;8691;50.828;4.700;2023-07-02T03:36:13;34.00;;;16.37;;
17151;SDS011;8691;50.828;4.700;2023-07-02T03:38:50;34.40;;;16.97;;
17151;SDS011;8691;50.828;4.700;2023-07-02T03:41:27;35.37;;;15.97;;
17151;SDS011;8691;50.828;4.700;2023-07-02T03:44:03;33.33;;;16.53;;
17151;SDS011;8691;50.828;4.700;2023-07-02T03:46:40;28.47;;;16.17;;
17151;SDS011;8691;50.828;4.700;2023-07-02T03:49:16;34.77;;;16.73;;
17151;SDS011;8691;50.828;4.700;2023-07-02T03:51:53;37.63;;;17.30;;
17151;SDS011;8691;50.828;4.700;2023-07-02T03:54:30;31.50;;;15.57;;
17151;SDS011;8691;50.828;4.700;2023-07-02T03:57:07;36.33;;;16.57;;
17151;SDS011;8691;50.828;4.700;2023-07-02T03:59:44;30.80;;;16.00;;
17151;SDS011;8691;50.828;4.700;2023-07-02T04:02:21;31.97;;;16.77;;
17151;SDS011;8691;50.828;4.700;2023-07-02T04:04:57;34.17;;;15.90;;
17151;SDS011;8691;50.828;4.700;2023-07-02T04:07:34;39.47;;;20.40;;
17151;SDS011;8691;50.828;4.700;2023-07-02T04:10:11;42.47;;;18.37;;
17151;SDS011;8691;50.828;4.700;2023-07-02T04:12:48;34.50;;;17.03;;
17151;SDS011;8691;50.828;4.700;2023-07-02T04:15:24;37.90;;;18.33;;
17151;SDS011;8691;50.828;4.700;2023-07-02T04:18:01;42.47;;;21.48;;
17151;SDS011;8691;50.828;4.700;2023-07-02T04:20:38;34.10;;;17.67;;
17151;SDS011;8691;50.828;4.700;2023-07-02T04:23:15;36.47;;;17.23;;
17151;SDS011;8691;50.828;4.700;2023-07-02T04:25:51;33.90;;;16.37;;
17151;SDS011;8691;50.828;4.700;2023-07-02T04:28:28;39.75;;;20.75;;
17151;SDS011;8691;50.828;4.700;2023-07-02T04:31:05;32.63;;;17.37;;
17151;SDS011;8691;50.828;4.700;2023-07-02T04:33:42;36.00;;;17.03;;
17151;SDS011;8691;50.828;4.700;2023-07-02T04:36:19;36.80;;;17.23;;
17151;SDS011;8691;50.828;4.700;2023-07-02T04:38:55;32.83;;;16.80;;
17151;SDS011;8691;50.828;4.700;2023-07-02T04:41:32;34.53;;;16.93;;
17151;SDS011;8691;50.828;4.700;2023-07-02T04:44:09;30.30;;;16.80;;
17151;SDS011;8691;50.828;4.700;2023-07-02T04:46:45;31.40;;;17.20;;
17151;SDS011;8691;50.828;4.700;2023-07-02T04:49:22;37.37;;;17.73;;
17151;SDS011;8691;50.828;4.700;2023-07-02T04:51:59;34.57;;;17.60;;
17151;SDS011;8691;50.828;4.700;2023-07-02T04:54:35;34.70;;;16.50;;
17151;SDS011;8691;50.828;4.700;2023-07-02T04:57:12;36.93;;;18.03;;
17151;SDS011;8691;50.828;4.700;2023-07-02T04:59:52;34.23;;;17.23;;
17151;SDS011;8691;50.828;4.700;2023-07-02T05:02:28;34.90;;;17.57;;
17151;SDS011;8691;50.828;4.700;2023-07-02T05:05:05;30.27;;;16.83;;
17151;SDS011;8691;50.828;4.700;2023-07-02T05:07:42;38.23;;;19.33;;
17151;SDS011;8691;50.828;4.700;2023-07-02T05:10:19;32.00;;;17.23;;
17151;SDS011;8691;50.828;4.700;2023-07-02T05:12:56;42.83;;;18.43;;
17151;SDS011;8691;50.828;4.700;2023-07-02T05:15:33;37.67;;;21.47;;
17151;SDS011;8691;50.828;4.700;2023-07-02T05:18:10;31.67;;;17.73;;
17151;SDS011;8691;50.828;4.700;2023-07-02T05:20:46;36.97;;;18.57;;
17151;SDS011;8691;50.828;4.700;2023-07-02T05:23:23;34.90;;;17.07;;
17151;SDS011;8691;50.828;4.700;2023-07-02T05:26:00;31.33;;;17.37;;
17151;SDS011;8691;50.828;4.700;2023-07-02T05:28:37;34.33;;;18.33;;
17151;SDS011;8691;50.828;4.700;2023-07-02T05:31:13;38.60;;;18.37;;
17151;SDS011;8691;50.828;4.700;2023-07-02T05:33:50;43.93;;;19.43;;
17151;SDS011;8691;50.828;4.700;2023-07-02T05:36:27;34.57;;;17.70;;
17151;SDS011;8691;50.828;4.700;2023-07-02T05:39:04;39.37;;;18.30;;
17151;SDS011;8691;50.828;4.700;2023-07-02T05:41:41;36.33;;;17.37;;
17151;SDS011;8691;50.828;4.700;2023-07-02T05:44:18;34.88;;;21.30;;
17151;SDS011;8691;50.828;4.700;2023-07-02T05:46:55;34.70;;;17.90;;
17151;SDS011;8691;50.828;4.700;2023-07-02T05:49:31;37.30;;;21.10;;
17151;SDS011;8691;50.828;4.700;2023-07-02T05:52:08;29.50;;;18.00;;
17151;SDS011;8691;50.828;4.700;2023-07-02T05:54:45;36.67;;;21.05;;
17151;SDS011;8691;50.828;4.700;2023-07-02T05:57:22;37.53;;;18.10;;
17151;SDS011;8691;50.828;4.700;2023-07-02T05:59:59;37.23;;;18.53;;
17151;SDS011;8691;50.828;4.700;2023-07-02T06:02:35;36.23;;;18.27;;
17151;SDS011;8691;50.828;4.700;2023-07-02T06:05:12;32.03;;;18.20;;
17151;SDS011;8691;50.828;4.700;2023-07-02T06:07:49;41.07;;;18.23;;
17151;SDS011;8691;50.828;4.700;2023-07-02T06:10:25;29.53;;;16.83;;
17151;SDS011;8691;50.828;4.700;2023-07-02T06:13:02;38.17;;;18.20;;
17151;SDS011;8691;50.828;4.700;2023-07-02T06:15:39;32.80;;;17.47;;
17151;SDS011;8691;50.828;4.700;2023-07-02T06:18:16;33.67;;;17.87;;
17151;SDS011;8691;50.828;4.700;2023-07-02T06:20:53;30.73;;;17.87;;
17151;SDS011;8691;50.828;4.700;2023-07-02T06:23:38;33.50;;;17.13;;
17151;SDS011;8691;50.828;4.700;2023-07-02T06:26:06;37.60;;;18.43;;
17151;SDS011;8691;50.828;4.700;2023-07-02T06:28:43;32.40;;;18.20;;
17151;SDS011;8691;50.828;4.700;2023-07-02T06:31:20;28.80;;;17.23;;
17151;SDS011;8691;50.828;4.700;2023-07-02T06:33:57;32.63;;;17.83;;
17151;SDS011;8691;50.828;4.700;2023-07-02T06:36:34;33.00;;;17.47;;
17151;SDS011;8691;50.828;4.700;2023-07-02T06:39:10;33.33;;;17.77;;
17151;SDS011;8691;50.828;4.700;2023-07-02T06:41:47;31.23;;;17.00;;
17151;SDS011;8691;50.828;4.700;2023-07-02T06:44:23;28.63;;;15.63;;
17151;SDS011;8691;50.828;4.700;2023-07-02T06:47:00;31.37;;;16.07;;
17151;SDS011;8691;50.828;4.700;2023-07-02T06:49:37;32.80;;;17.27;;
17151;SDS011;8691;50.828;4.700;2023-07-02T06:52:13;32.93;;;16.30;;
17151;SDS011;8691;50.828;4.700;2023-07-02T06:54:50;30.57;;;16.47;;
17151;SDS011;8691;50.828;4.700;2023-07-02T06:57:27;28.03;;;16.07;;
17151;SDS011;8691;50.828;4.700;2023-07-02T07:00:04;29.40;;;17.60;;
17151;SDS011;8691;50.828;4.700;2023-07-02T07:02:40;30.93;;;16.27;;
17151;SDS011;8691;50.828;4.700;2023-07-02T07:05:17;27.30;;;16.87;;
17151;SDS011;8691;50.828;4.700;2023-07-02T07:07:54;27.90;;;15.87;;
17151;SDS011;8691;50.828;4.700;2023-07-02T07:10:30;30.57;;;15.63;;
17151;SDS011;8691;50.828;4.700;2023-07-02T07:13:07;26.57;;;14.73;;
17151;SDS011;8691;50.828;4.700;2023-07-02T07:15:44;22.63;;;15.03;;
17151;SDS011;8691;50.828;4.700;2023-07-02T07:18:20;28.90;;;15.23;;
17151;SDS011;8691;50.828;4.700;2023-07-02T07:20:57;24.93;;;14.57;;
17151;SDS011;8691;50.828;4.700;2023-07-02T07:23:34;23.80;;;13.77;;
17151;SDS011;8691;50.828;4.700;2023-07-02T07:26:10;26.13;;;13.27;;
17151;SDS011;8691;50.828;4.700;2023-07-02T07:28:47;24.70;;;12.77;;
17151;SDS011;8691;50.828;4.700;2023-07-02T07:31:24;23.17;;;12.70;;
17151;SDS011;8691;50.828;4.700;2023-07-02T07:34:00;22.97;;;15.67;;
17151;SDS011;8691;50.828;4.700;2023-07-02T07:36:37;23.37;;;13.67;;
17151;SDS011;8691;50.828;4.700;2023-07-02T07:39:14;22.00;;;12.73;;
17151;SDS011;8691;50.828;4.700;2023-07-02T07:41:51;20.23;;;11.87;;
17151;SDS011;8691;50.828;4.700;2023-07-02T07:44:27;22.93;;;12.37;;
17151;SDS011;8691;50.828;4.700;2023-07-02T07:47:04;22.10;;;11.47;;
17151;SDS011;8691;50.828;4.700;2023-07-02T07:49:41;22.10;;;13.12;;
17151;SDS011;8691;50.828;4.700;2023-07-02T07:52:18;22.83;;;12.20;;
17151;SDS011;8691;50.828;4.700;2023-07-02T07:54:54;19.70;;;11.67;;
17151;SDS011;8691;50.828;4.700;2023-07-02T07:57:31;19.77;;;10.80;;
17151;SDS011;8691;50.828;4.700;2023-07-02T08:00:08;19.30;;;11.82;;
17151;SDS011;8691;50.828;4.700;2023-07-02T08:02:48;18.57;;;10.40;;
17151;SDS011;8691;50.828;4.700;2023-07-02T08:05:24;16.70;;;10.70;;
17151;SDS011;8691;50.828;4.700;2023-07-02T08:08:01;18.12;;;10.88;;
17151;SDS011;8691;50.828;4.700;2023-07-02T08:10:38;17.10;;;10.30;;
17151;SDS011;8691;50.828;4.700;2023-07-02T08:13:15;18.70;;;10.07;;
17151;SDS011;8691;50.828;4.700;2023-07-02T08:15:53;17.97;;;10.57;;
17151;SDS011;8691;50.828;4.700;2023-07-02T08:18:30;16.62;;;10.95;;
17151;SDS011;8691;50.828;4.700;2023-07-02T08:21:07;18.00;;;9.90;;
17151;SDS011;8691;50.828;4.700;2023-07-02T08:23:44;17.95;;;10.80;;
17151;SDS011;8691;50.828;4.700;2023-07-02T08:26:20;14.87;;;9.67;;
17151;SDS011;8691;50.828;4.700;2023-07-02T08:28:57;16.77;;;9.30;;
17151;SDS011;8691;50.828;4.700;2023-07-02T08:31:34;18.87;;;9.70;;
17151;SDS011;8691;50.828;4.700;2023-07-02T08:34:11;18.67;;;10.77;;
17151;SDS011;8691;50.828;4.700;2023-07-02T08:36:48;15.90;;;9.43;;
17151;SDS011;8691;50.828;4.700;2023-07-02T08:39:25;18.50;;;9.80;;
17151;SDS011;8691;50.828;4.700;2023-07-02T08:42:02;18.83;;;10.23;;
17151;SDS011;8691;50.828;4.700;2023-07-02T08:44:38;17.40;;;9.83;;
17151;SDS011;8691;50.828;4.700;2023-07-02T08:47:15;18.95;;;10.55;;
17151;SDS011;8691;50.828;4.700;2023-07-02T08:49:52;19.30;;;9.67;;
17151;SDS011;8691;50.828;4.700;2023-07-02T08:52:29;14.97;;;8.93;;
17151;SDS011;8691;50.828;4.700;2023-07-02T08:55:06;15.50;;;9.30;;
17151;SDS011;8691;50.828;4.700;2023-07-02T08:57:47;15.57;;;9.23;;
17151;SDS011;8691;50.828;4.700;2023-07-02T09:00:22;19.77;;;8.63;;
17151;SDS011;8691;50.828;4.700;2023-07-02T09:02:59;14.13;;;8.67;;
17151;SDS011;8691;50.828;4.700;2023-07-02T09:05:35;18.70;;;9.80;;
17151;SDS011;8691;50.828;4.700;2023-07-02T09:08:12;18.33;;;9.10;;
17151;SDS011;8691;50.828;4.700;2023-07-02T09:10:49;16.90;;;9.77;;
17151;SDS011;8691;50.828;4.700;2023-07-02T09:13:25;13.87;;;8.77;;
17151;SDS011;8691;50.828;4.700;2023-07-02T09:16:02;20.00;;;9.07;;
17151;SDS011;8691;50.828;4.700;2023-07-02T09:18:40;19.73;;;9.37;;
17151;SDS011;8691;50.828;4.700;2023-07-02T09:21:16;16.70;;;9.20;;
17151;SDS011;8691;50.828;4.700;2023-07-02T09:23:53;18.97;;;9.20;;
17151;SDS011;8691;50.828;4.700;2023-07-02T09:26:30;18.57;;;9.13;;
17151;SDS011;8691;50.828;4.700;2023-07-02T09:29:07;19.27;;;9.63;;
17151;SDS011;8691;50.828;4.700;2023-07-02T09:31:44;17.87;;;9.27;;
17151;SDS011;8691;50.828;4.700;2023-07-02T09:34:25;19.37;;;10.50;;
17151;SDS011;8691;50.828;4.700;2023-07-02T09:36:57;18.63;;;10.07;;
17151;SDS011;8691;50.828;4.700;2023-07-02T09:39:34;19.07;;;9.23;;
17151;SDS011;8691;50.828;4.700;2023-07-02T09:42:10;14.93;;;8.90;;
17151;SDS011;8691;50.828;4.700;2023-07-02T09:44:47;16.73;;;8.80;;
17151;SDS011;8691;50.828;4.700;2023-07-02T09:47:24;15.70;;;9.13;;
17151;SDS011;8691;50.828;4.700;2023-07-02T09:50:04;15.37;;;8.83;;
17151;SDS011;8691;50.828;4.700;2023-07-02T09:52:40;15.77;;;8.73;;
17151;SDS011;8691;50.828;4.700;2023-07-02T09:55:17;19.77;;;9.57;;
17151;SDS011;8691;50.828;4.700;2023-07-02T09:57:54;15.30;;;8.30;;
17151;SDS011;8691;50.828;4.700;2023-07-02T10:00:31;18.38;;;10.75;;
17151;SDS011;8691;50.828;4.700;2023-07-02T10:03:07;14.53;;;8.93;;
17151;SDS011;8691;50.828;4.700;2023-07-02T10:05:44;16.33;;;9.73;;
17151;SDS011;8691;50.828;4.700;2023-07-02T10:08:21;16.47;;;9.93;;
17151;SDS011;8691;50.828;4.700;2023-07-02T10:11:07;14.67;;;8.70;;
17151;SDS011;8691;50.828;4.700;2023-07-02T10:13:46;17.63;;;8.70;;
17151;SDS011;8691;50.828;4.700;2023-07-02T10:16:23;15.67;;;9.03;;
17151;SDS011;8691;50.828;4.700;2023-07-02T10:19:09;12.97;;;8.47;;
17151;SDS011;8691;50.828;4.700;2023-07-02T10:21:45;14.27;;;8.07;;
17151;SDS011;8691;50.828;4.700;2023-07-02T10:24:22;16.47;;;8.30;;
17151;SDS011;8691;50.828;4.700;2023-07-02T10:26:59;16.73;;;8.67;;
17151;SDS011;8691;50.828;4.700;2023-07-02T10:29:35;15.20;;;8.20;;
17151;SDS011;8691;50.828;4.700;2023-07-02T10:32:12;14.77;;;8.57;;
17151;SDS011;8691;50.828;4.700;2023-07-02T10:34:48;15.03;;;8.77;;
17151;SDS011;8691;50.828;4.700;2023-07-02T10:37:25;16.83;;;8.33;;
17151;SDS011;8691;50.828;4.700;2023-07-02T10:40:05;16.87;;;8.33;;
17151;SDS011;8691;50.828;4.700;2023-07-02T10:42:48;15.47;;;8.77;;
17151;SDS011;8691;50.828;4.700;2023-07-02T10:45:30;17.97;;;9.20;;
17151;SDS011;8691;50.828;4.700;2023-07-02T10:47:58;16.13;;;8.33;;
17151;SDS011;8691;50.828;4.700;2023-07-02T10:50:34;16.73;;;8.40;;
17151;SDS011;8691;50.828;4.700;2023-07-02T10:53:17;14.77;;;8.63;;
17151;SDS011;8691;50.828;4.700;2023-07-02T10:55:54;17.67;;;8.43;;
17151;SDS011;8691;50.828;4.700;2023-07-02T10:58:30;14.13;;;8.03;;
17151;SDS011;8691;50.828;4.700;2023-07-02T11:01:07;15.67;;;8.40;;
17151;SDS011;8691;50.828;4.700;2023-07-02T11:03:43;19.77;;;8.33;;
17151;SDS011;8691;50.828;4.700;2023-07-02T11:06:20;16.27;;;8.50;;
17151;SDS011;8691;50.828;4.700;2023-07-02T11:08:57;13.80;;;7.93;;
17151;SDS011;8691;50.828;4.700;2023-07-02T11:11:33;15.70;;;8.70;;
17151;SDS011;8691;50.828;4.700;2023-07-02T11:14:10;14.70;;;7.90;;
17151;SDS011;8691;50.828;4.700;2023-07-02T11:16:53;13.33;;;8.53;;
17151;SDS011;8691;50.828;4.700;2023-07-02T11:19:24;13.17;;;7.60;;
17151;SDS011;8691;50.828;4.700;2023-07-02T11:22:01;16.93;;;8.10;;
17151;SDS011;8691;50.828;4.700;2023-07-02T11:24:37;14.30;;;7.97;;
17151;SDS011;8691;50.828;4.700;2023-07-02T11:27:20;12.90;;;8.00;;
17151;SDS011;8691;50.828;4.700;2023-07-02T11:29:58;17.50;;;8.77;;
17151;SDS011;8691;50.828;4.700;2023-07-02T11:32:27;12.97;;;7.73;;
17151;SDS011;8691;50.828;4.700;2023-07-02T11:35:04;15.23;;;8.33;;
17151;SDS011;8691;50.828;4.700;2023-07-02T11:37:41;15.67;;;7.90;;
17151;SDS011;8691;50.828;4.700;2023-07-02T11:40:17;18.60;;;8.23;;
17151;SDS011;8691;50.828;4.700;2023-07-02T11:42:54;16.13;;;7.43;;
17151;SDS011;8691;50.828;4.700;2023-07-02T11:45:31;18.13;;;7.97;;
17151;SDS011;8691;50.828;4.700;2023-07-02T11:48:07;16.47;;;8.30;;
17151;SDS011;8691;50.828;4.700;2023-07-02T11:50:44;15.43;;;7.47;;
17151;SDS011;8691;50.828;4.700;2023-07-02T11:53:21;13.97;;;7.67;;
17151;SDS011;8691;50.828;4.700;2023-07-02T11:55:57;14.67;;;7.73;;
17151;SDS011;8691;50.828;4.700;2023-07-02T11:58:34;11.63;;;7.60;;
17151;SDS011;8691;50.828;4.700;2023-07-02T12:01:11;18.27;;;7.70;;
17151;SDS011;8691;50.828;4.700;2023-07-02T12:03:47;15.13;;;7.40;;
17151;SDS011;8691;50.828;4.700;2023-07-02T12:06:24;18.07;;;7.97;;
17151;SDS011;8691;50.828;4.700;2023-07-02T12:09:01;13.93;;;7.67;;
17151;SDS011;8691;50.828;4.700;2023-07-02T12:11:37;16.10;;;7.30;;
17151;SDS011;8691;50.828;4.700;2023-07-02T12:14:14;14.33;;;7.50;;
17151;SDS011;8691;50.828;4.700;2023-07-02T12:16:52;14.00;;;7.63;;
17151;SDS011;8691;50.828;4.700;2023-07-02T12:19:28;13.20;;;7.30;;
17151;SDS011;8691;50.828;4.700;2023-07-02T12:22:05;13.23;;;7.10;;
17151;SDS011;8691;50.828;4.700;2023-07-02T12:24:42;15.57;;;7.10;;
17151;SDS011;8691;50.828;4.700;2023-07-02T12:27:18;13.67;;;7.57;;
17151;SDS011;8691;50.828;4.700;2023-07-02T12:29:55;16.37;;;7.50;;
17151;SDS011;8691;50.828;4.700;2023-07-02T12:32:32;16.40;;;7.43;;
17151;SDS011;8691;50.828;4.700;2023-07-02T12:35:08;17.00;;;7.70;;
17151;SDS011;8691;50.828;4.700;2023-07-02T12:37:45;10.93;;;7.70;;
17151;SDS011;8691;50.828;4.700;2023-07-02T12:40:22;14.23;;;8.10;;
17151;SDS011;8691;50.828;4.700;2023-07-02T12:42:58;14.17;;;8.13;;
17151;SDS011;8691;50.828;4.700;2023-07-02T12:45:35;14.40;;;7.17;;
17151;SDS011;8691;50.828;4.700;2023-07-02T12:48:13;13.50;;;6.90;;
17151;SDS011;8691;50.828;4.700;2023-07-02T12:50:53;11.53;;;6.83;;
17151;SDS011;8691;50.828;4.700;2023-07-02T12:53:29;13.07;;;7.60;;
17151;SDS011;8691;50.828;4.700;2023-07-02T12:56:06;13.43;;;7.87;;
17151;SDS011;8691;50.828;4.700;2023-07-02T12:58:42;12.57;;;7.60;;
17151;SDS011;8691;50.828;4.700;2023-07-02T13:01:20;13.10;;;6.50;;
17151;SDS011;8691;50.828;4.700;2023-07-02T13:03:56;16.73;;;7.47;;
17151;SDS011;8691;50.828;4.700;2023-07-02T13:06:33;14.00;;;7.63;;
17151;SDS011;8691;50.828;4.700;2023-07-02T13:09:10;15.07;;;7.07;;
17151;SDS011;8691;50.828;4.700;2023-07-02T13:11:46;13.70;;;7.20;;
17151;SDS011;8691;50.828;4.700;2023-07-02T13:14:23;16.03;;;8.03;;
17151;SDS011;8691;50.828;4.700;2023-07-02T13:17:00;12.40;;;7.67;;
17151;SDS011;8691;50.828;4.700;2023-07-02T13:19:37;13.10;;;6.30;;
17151;SDS011;8691;50.828;4.700;2023-07-02T13:22:14;15.10;;;7.57;;
17151;SDS011;8691;50.828;4.700;2023-07-02T13:24:50;13.43;;;7.17;;
17151;SDS011;8691;50.828;4.700;2023-07-02T13:27:27;12.37;;;6.93;;
17151;SDS011;8691;50.828;4.700;2023-07-02T13:30:04;12.67;;;6.43;;
17151;SDS011;8691;50.828;4.700;2023-07-02T13:32:41;13.63;;;6.87;;
17151;SDS011;8691;50.828;4.700;2023-07-02T13:35:17;13.73;;;7.07;;
17151;SDS011;8691;50.828;4.700;2023-07-02T13:37:54;14.40;;;6.73;;
17151;SDS011;8691;50.828;4.700;2023-07-02T13:40:31;14.53;;;6.67;;
17151;SDS011;8691;50.828;4.700;2023-07-02T13:43:07;15.60;;;6.93;;
17151;SDS011;8691;50.828;4.700;2023-07-02T13:45:44;14.37;;;6.30;;
17151;SDS011;8691;50.828;4.700;2023-07-02T13:48:21;13.77;;;7.20;;
17151;SDS011;8691;50.828;4.700;2023-07-02T13:50:57;15.07;;;7.53;;
17151;SDS011;8691;50.828;4.700;2023-07-02T13:53:34;11.10;;;6.27;;
17151;SDS011;8691;50.828;4.700;2023-07-02T13:56:11;13.80;;;8.00;;
17151;SDS011;8691;50.828;4.700;2023-07-02T14:01:34;14.00;;;6.80;;
17151;SDS011;8691;50.828;4.700;2023-07-02T14:04:11;12.47;;;6.83;;
17151;SDS011;8691;50.828;4.700;2023-07-02T14:06:47;15.20;;;5.90;;
17151;SDS011;8691;50.828;4.700;2023-07-02T14:09:24;12.43;;;6.50;;
17151;SDS011;8691;50.828;4.700;2023-07-02T14:12:01;13.73;;;6.77;;
17151;SDS011;8691;50.828;4.700;2023-07-02T14:14:37;9.83;;;6.17;;
17151;SDS011;8691;50.828;4.700;2023-07-02T14:17:14;15.50;;;6.40;;
17151;SDS011;8691;50.828;4.700;2023-07-02T14:19:51;11.40;;;6.37;;
17151;SDS011;8691;50.828;4.700;2023-07-02T14:22:27;15.37;;;6.27;;
17151;SDS011;8691;50.828;4.700;2023-07-02T14:25:04;13.43;;;6.67;;
17151;SDS011;8691;50.828;4.700;2023-07-02T14:27:41;11.47;;;6.67;;
17151;SDS011;8691;50.828;4.700;2023-07-02T14:30:18;14.55;;;7.12;;
17151;SDS011;8691;50.828;4.700;2023-07-02T14:32:54;13.43;;;6.80;;
17151;SDS011;8691;50.828;4.700;2023-07-02T14:35:31;13.23;;;6.90;;
17151;SDS011;8691;50.828;4.700;2023-07-02T14:38:08;14.63;;;7.57;;
17151;SDS011;8691;50.828;4.700;2023-07-02T14:40:44;12.73;;;6.30;;
17151;SDS011;8691;50.828;4.700;2023-07-02T14:43:22;13.97;;;6.17;;
17151;SDS011;8691;50.828;4.700;2023-07-02T14:45:59;12.50;;;6.37;;
17151;SDS011;8691;50.828;4.700;2023-07-02T14:48:35;12.60;;;6.53;;
17151;SDS011;8691;50.828;4.700;2023-07-02T14:51:12;12.37;;;6.53;;
17151;SDS011;8691;50.828;4.700;2023-07-02T14:53:49;14.33;;;6.80;;
17151;SDS011;8691;50.828;4.700;2023-07-02T14:56:25;9.43;;;6.07;;
17151;SDS011;8691;50.828;4.700;2023-07-02T14:59:02;14.87;;;6.57;;
17151;SDS011;8691;50.828;4.700;2023-07-02T15:01:38;10.87;;;5.97;;
17151;SDS011;8691;50.828;4.700;2023-07-02T15:04:15;14.07;;;7.13;;
17151;SDS011;8691;50.828;4.700;2023-07-02T15:06:52;13.50;;;6.40;;
17151;SDS011;8691;50.828;4.700;2023-07-02T15:09:28;16.63;;;7.00;;
17151;SDS011;8691;50.828;4.700;2023-07-02T15:12:05;11.93;;;6.40;;
17151;SDS011;8691;50.828;4.700;2023-07-02T15:14:42;12.53;;;6.63;;
17151;SDS011;8691;50.828;4.700;2023-07-02T15:17:18;15.73;;;7.00;;
17151;SDS011;8691;50.828;4.700;2023-07-02T15:19:55;13.57;;;7.00;;
17151;SDS011;8691;50.828;4.700;2023-07-02T15:22:32;10.97;;;6.30;;
17151;SDS011;8691;50.828;4.700;2023-07-02T15:25:08;13.53;;;7.20;;
17151;SDS011;8691;50.828;4.700;2023-07-02T15:27:45;13.30;;;6.17;;
17151;SDS011;8691;50.828;4.700;2023-07-02T15:30:22;14.60;;;6.53;;
17151;SDS011;8691;50.828;4.700;2023-07-02T15:32:58;12.57;;;6.47;;
17151;SDS011;8691;50.828;4.700;2023-07-02T15:35:35;14.97;;;6.00;;
17151;SDS011;8691;50.828;4.700;2023-07-02T15:38:12;10.30;;;5.73;;
17151;SDS011;8691;50.828;4.700;2023-07-02T15:40:48;13.83;;;6.10;;